createdAt,value
2024-05-09T01:03:00.977Z,19.00
2024-05-09T01:04:01.382Z,19.50
2024-05-09T01:05:01.049Z,20.10
2024-05-09T01:06:00.721Z,17.50
2024-05-09T01:07:00.670Z,18.60
2024-05-09T01:08:01.201Z,19.80
2024-05-09T01:09:00.776Z,20.20
2024-05-09T01:10:00.629Z,19.80
2024-05-09T01:11:00.795Z,20.50
2024-05-09T01:12:00.868Z,18.30
2024-05-09T01:13:01.292Z,19.50
2024-05-09T01:14:00.708Z,19.40
2024-05-09T01:15:00.701Z,19.50
2024-05-09T01:16:01.355Z,21.20
2024-05-09T01:17:00.706Z,20.00
2024-05-09T01:18:03.804Z,19.20
2024-05-09T01:19:02.815Z,19.40
2024-05-09T01:20:00.748Z,20.90
2024-05-09T01:21:00.687Z,19.70
2024-05-09T01:22:00.652Z,20.10
2024-05-09T01:23:05.277Z,21.10
2024-05-09T01:24:00.622Z,20.40
2024-05-09T01:25:00.619Z,21.30
2024-05-09T01:26:00.803Z,20.50
2024-05-09T01:27:00.660Z,18.80
2024-05-09T01:28:00.693Z,21.10
2024-05-09T01:29:00.718Z,20.80
2024-05-09T01:30:00.766Z,22.10
2024-05-09T01:31:00.642Z,20.20
2024-05-09T01:32:00.802Z,21.70
2024-05-09T01:33:01.062Z,22.40
2024-05-09T01:34:00.798Z,21.90
2024-05-09T01:35:00.843Z,20.60
2024-05-09T01:36:00.849Z,19.60
2024-05-09T01:37:00.653Z,20.00
2024-05-09T01:38:00.759Z,19.30
2024-05-09T01:39:00.660Z,19.60
2024-05-09T01:40:00.643Z,20.80
2024-05-09T01:41:00.730Z,20.20
2024-05-09T01:42:00.657Z,20.90
2024-05-09T01:43:00.663Z,19.60
2024-05-09T01:44:00.703Z,20.60
2024-05-09T01:45:00.743Z,22.30
2024-05-09T01:46:00.795Z,21.70
2024-05-09T01:47:00.699Z,20.40
2024-05-09T01:48:01.277Z,22.30
2024-05-09T01:49:00.832Z,21.10
2024-05-09T01:50:00.986Z,20.70
2024-05-09T01:51:00.857Z,20.80
2024-05-09T01:52:00.682Z,20.70
2024-05-09T01:53:00.695Z,21.70
2024-05-09T01:54:01.329Z,24.60
2024-05-09T01:55:04.517Z,22.70
2024-05-09T01:56:00.921Z,25.00
2024-05-09T01:57:00.630Z,22.50
2024-05-09T01:58:00.631Z,22.40
2024-05-09T01:59:00.710Z,23.20
2024-05-09T02:00:00.722Z,22.80
2024-05-09T02:01:00.802Z,22.80
2024-05-09T02:02:00.970Z,23.40
2024-05-09T02:03:00.910Z,22.20
2024-05-09T02:04:00.790Z,23.50
2024-05-09T02:05:00.767Z,23.20
2024-05-09T02:06:00.744Z,23.60
2024-05-09T02:07:00.697Z,21.00
2024-05-09T02:08:00.962Z,22.80
2024-05-09T02:09:00.647Z,22.70
2024-05-09T02:10:00.688Z,23.00
2024-05-09T02:11:00.955Z,22.80
2024-05-09T02:12:01.067Z,22.80
2024-05-09T02:13:00.689Z,22.80
2024-05-09T02:14:00.750Z,22.80
2024-05-09T02:16:00.981Z,23.50
2024-05-09T02:17:00.694Z,23.50
2024-05-09T02:18:00.948Z,23.50
2024-05-09T03:23:00.762Z,23.30
2024-05-09T03:24:00.623Z,22.60
2024-05-09T03:25:00.681Z,24.50
2024-05-09T03:26:00.768Z,23.70
2024-05-09T03:27:00.634Z,23.80
2024-05-09T03:28:00.688Z,22.30
2024-05-09T03:29:00.687Z,23.90
2024-05-09T03:30:00.672Z,23.50
2024-05-09T03:31:00.641Z,23.90
2024-05-09T03:32:00.910Z,24.00
2024-05-09T03:33:00.976Z,24.90
2024-05-09T03:34:00.847Z,25.60
2024-05-09T03:35:00.737Z,23.30
2024-05-09T03:36:01.556Z,23.30
2024-05-09T03:37:00.678Z,24.50
2024-05-09T03:38:00.738Z,24.50
2024-05-09T03:39:00.698Z,24.60
2024-05-09T03:40:00.786Z,24.90
2024-05-09T03:41:00.755Z,23.70
2024-05-09T03:42:00.677Z,23.40
2024-05-09T03:43:00.663Z,23.20
2024-05-09T03:44:00.739Z,24.60
2024-05-09T03:45:00.684Z,24.00
2024-05-09T03:46:00.673Z,25.30
2024-05-09T03:47:00.706Z,23.50
2024-05-09T03:48:00.992Z,25.00
2024-05-09T03:49:00.849Z,24.60
2024-05-09T03:50:00.733Z,24.70
2024-05-09T03:51:00.741Z,25.00
2024-05-09T03:52:00.648Z,25.70
2024-05-09T03:53:01.286Z,24.70
2024-05-09T03:54:00.621Z,24.30
2024-05-09T03:55:00.627Z,24.60
2024-05-09T03:56:00.786Z,24.00
2024-05-09T03:57:00.753Z,24.20
2024-05-09T03:58:00.732Z,24.50
2024-05-09T03:59:00.682Z,24.30
2024-05-09T04:00:00.631Z,24.90
2024-05-09T04:01:00.716Z,23.90
2024-05-09T04:02:00.877Z,24.10
2024-05-09T04:03:01.029Z,23.50
2024-05-09T04:04:00.716Z,24.30
2024-05-09T04:05:00.672Z,29.70
2024-05-09T04:06:00.634Z,34.20
2024-05-09T04:07:00.628Z,26.10
2024-05-09T04:08:00.843Z,25.40
2024-05-09T04:09:00.654Z,24.10
2024-05-09T04:10:00.699Z,22.70
2024-05-09T04:11:00.786Z,24.90
2024-05-09T04:12:00.834Z,23.80
2024-05-09T04:13:01.000Z,25.20
2024-05-09T04:14:00.687Z,24.60
2024-05-09T04:15:00.722Z,23.70
2024-05-09T04:16:00.645Z,23.80
2024-05-09T04:17:00.691Z,24.60
2024-05-09T04:18:01.755Z,23.80
2024-05-09T04:19:00.725Z,23.90
2024-05-09T04:20:00.891Z,24.50
2024-05-09T04:21:02.046Z,23.30
2024-05-09T04:22:00.635Z,24.60
2024-05-09T04:23:00.727Z,26.30
2024-05-09T04:24:00.640Z,24.20
2024-05-09T04:25:00.642Z,23.50
2024-05-09T04:26:00.710Z,23.60
2024-05-09T04:27:00.762Z,24.10
2024-05-09T04:28:00.670Z,24.90
2024-05-09T04:29:00.690Z,24.30
2024-05-09T04:30:00.716Z,24.90
2024-05-09T04:31:00.633Z,22.90
2024-05-09T04:32:00.797Z,24.40
2024-05-09T04:33:01.482Z,24.40
2024-05-09T04:34:00.814Z,25.40
2024-05-09T04:35:00.738Z,25.40
2024-05-09T04:36:00.658Z,24.80
2024-05-09T04:37:00.951Z,27.00
2024-05-09T04:38:00.897Z,25.10
2024-05-09T04:39:00.624Z,27.20
2024-05-09T04:40:00.632Z,81.60
2024-05-09T04:41:00.724Z,53.40
2024-05-09T04:42:00.629Z,25.50
2024-05-09T04:43:00.667Z,25.20
2024-05-09T04:44:00.665Z,25.00
2024-05-09T04:45:00.642Z,25.00
2024-05-09T04:46:00.640Z,24.10
2024-05-09T04:47:00.725Z,25.00
2024-05-09T04:48:01.534Z,25.20
2024-05-09T04:49:00.956Z,26.40
2024-05-09T04:50:00.710Z,26.50
2024-05-09T04:51:00.848Z,24.00
2024-05-09T04:52:00.641Z,26.70
2024-05-09T04:53:00.832Z,25.90
2024-05-09T04:54:00.681Z,24.80
2024-05-09T04:55:00.636Z,26.90
2024-05-09T04:56:00.780Z,26.90
2024-05-09T04:57:00.627Z,26.10
2024-05-09T04:58:00.670Z,26.70
2024-05-09T04:59:00.725Z,25.80
2024-05-09T05:00:00.656Z,25.50
2024-05-09T05:01:00.714Z,25.90
2024-05-09T05:02:00.869Z,24.20
2024-05-09T05:03:00.830Z,25.10
2024-05-09T05:04:00.813Z,25.00
2024-05-09T05:05:00.928Z,24.30
2024-05-09T05:06:00.719Z,26.20
2024-05-09T05:07:02.876Z,26.80
2024-05-09T05:08:00.758Z,25.30
2024-05-09T05:09:00.699Z,25.80
2024-05-09T05:10:00.662Z,24.50
2024-05-09T05:11:00.870Z,24.20
2024-05-09T05:12:01.812Z,26.30
2024-05-09T05:13:00.630Z,24.80
2024-05-09T05:14:00.849Z,25.20
2024-05-09T05:15:00.643Z,24.80
2024-05-09T05:16:00.647Z,25.00
2024-05-09T05:17:00.773Z,23.40
2024-05-09T05:18:00.958Z,25.10
2024-05-09T05:19:00.923Z,24.80
2024-05-09T05:20:00.869Z,24.00
2024-05-09T05:21:01.624Z,24.80
2024-05-09T05:22:00.694Z,24.50
2024-05-09T05:23:01.081Z,23.90
2024-05-09T05:24:00.657Z,22.80
2024-05-09T05:25:00.716Z,23.90
2024-05-09T05:26:00.697Z,22.90
2024-05-09T05:27:00.649Z,21.90
2024-05-09T05:28:00.674Z,22.20
2024-05-09T05:29:00.751Z,23.80
2024-05-09T05:30:00.735Z,22.80
2024-05-09T05:31:00.626Z,23.40
2024-05-09T05:32:00.822Z,23.10
2024-05-09T05:33:01.088Z,23.20
2024-05-09T05:34:00.730Z,22.80
2024-05-09T05:35:00.759Z,23.10
2024-05-09T05:36:00.661Z,22.70
2024-05-09T05:37:00.636Z,21.80
2024-05-09T05:38:01.103Z,24.70
2024-05-09T05:39:00.647Z,24.00
2024-05-09T05:40:00.634Z,23.10
2024-05-09T05:41:02.879Z,21.80
2024-05-09T05:42:00.637Z,21.80
2024-05-09T05:43:00.720Z,21.80
2024-05-09T05:44:00.737Z,21.80
2024-05-09T05:45:00.653Z,21.80
2024-05-09T05:46:00.656Z,22.00
2024-05-09T05:47:00.650Z,22.10
2024-05-09T05:48:02.385Z,22.10
2024-05-09T05:49:00.717Z,20.60
2024-05-09T05:50:00.895Z,20.60
2024-05-09T05:51:04.226Z,20.60
2024-05-09T05:52:00.681Z,20.60
2024-05-09T05:53:00.782Z,20.40
2024-05-09T05:54:00.623Z,20.40
2024-05-09T05:55:00.612Z,20.40
2024-05-09T05:56:00.753Z,20.40
2024-05-09T05:57:00.698Z,20.40
2024-05-09T05:58:01.298Z,20.40
2024-05-09T05:59:00.715Z,20.40
2024-05-09T06:00:00.670Z,20.40
2024-05-09T06:01:00.917Z,20.40
2024-05-09T06:02:00.690Z,20.40
2024-05-09T06:03:00.943Z,20.40
2024-05-09T06:04:00.803Z,20.40
2024-05-09T06:05:01.226Z,20.40
2024-05-09T06:06:01.245Z,20.40
2024-05-09T06:49:00.839Z,12.90
2024-05-09T06:50:00.907Z,13.70
2024-05-09T06:51:00.704Z,13.20
2024-05-09T06:52:00.651Z,12.60
2024-05-09T06:53:00.783Z,13.40
2024-05-09T06:54:00.728Z,15.50
2024-05-09T06:55:00.655Z,12.50
2024-05-09T06:56:00.659Z,13.20
2024-05-09T06:57:00.624Z,13.80
2024-05-09T06:58:00.761Z,12.80
2024-05-09T06:59:01.159Z,13.00
2024-05-09T07:00:01.003Z,12.70
2024-05-09T07:01:02.233Z,13.20
2024-05-09T07:02:01.434Z,12.90
2024-05-09T07:03:05.601Z,13.00
2024-05-09T07:04:00.743Z,11.70
2024-05-09T07:05:01.148Z,12.30
2024-05-09T07:06:00.731Z,13.00
2024-05-09T07:07:00.632Z,13.20
2024-05-09T07:08:00.724Z,13.20
2024-05-09T07:10:00.688Z,12.10
2024-05-09T07:11:00.799Z,12.20
2024-05-09T07:12:00.751Z,11.90
2024-05-09T07:13:00.698Z,11.10
2024-05-09T07:14:00.674Z,12.80
2024-05-09T07:20:02.500Z,10.70
2024-05-09T07:21:00.932Z,10.80
2024-05-09T07:22:00.284Z,11.30
2024-05-09T07:23:01.372Z,10.50
2024-05-09T07:24:00.269Z,17.00
2024-05-09T07:25:00.284Z,12.20
2024-05-09T07:26:00.318Z,11.60
2024-05-09T07:27:00.289Z,11.40
2024-05-09T07:28:00.280Z,11.00
2024-05-09T07:29:00.318Z,10.80
2024-05-09T07:30:00.270Z,11.00
2024-05-09T07:31:00.285Z,10.80
2024-05-09T07:32:00.272Z,10.90
2024-05-09T07:33:00.859Z,11.20
2024-05-09T07:34:00.638Z,10.50
2024-05-09T07:35:00.317Z,10.40
2024-05-09T07:36:00.312Z,10.80
2024-05-09T07:37:00.289Z,11.00
2024-05-09T07:38:00.374Z,10.70
2024-05-09T07:39:00.296Z,10.70
2024-05-09T07:40:00.285Z,10.20
2024-05-09T07:41:01.859Z,10.40
2024-05-09T07:42:00.287Z,9.80
2024-05-09T07:43:02.002Z,10.00
2024-05-09T07:44:00.339Z,8.50
2024-05-09T07:45:17.702Z,8.30
2024-05-09T07:46:28.609Z,8.00
2024-05-09T07:50:35.901Z,7.20
2024-05-09T07:51:47.461Z,7.90
2024-05-09T07:53:00.906Z,7.80
2024-05-09T07:53:24.958Z,8.00
2024-05-09T07:53:35.960Z,6.70
2024-05-09T07:54:01.402Z,7.50
2024-05-09T07:55:00.779Z,6.30
2024-05-09T07:56:00.480Z,8.50
2024-05-09T07:57:00.395Z,6.20
2024-05-09T07:58:00.326Z,5.90
2024-05-09T07:59:00.277Z,6.60
2024-05-09T08:00:00.294Z,7.10
2024-05-09T08:01:00.518Z,6.90
2024-05-09T08:02:00.601Z,7.00
2024-05-09T08:03:00.380Z,6.90
2024-05-09T08:04:00.489Z,8.40
2024-05-09T08:05:00.453Z,7.00
2024-05-09T08:06:00.378Z,7.30
2024-05-09T08:07:00.409Z,5.70
2024-05-09T08:08:00.302Z,6.70
2024-05-09T08:09:05.267Z,5.90
2024-05-09T08:10:00.316Z,4.60
2024-05-09T08:11:00.860Z,4.60
2024-05-09T08:12:00.267Z,4.90
2024-05-09T08:13:00.296Z,5.50
2024-05-09T08:14:00.295Z,5.60
2024-05-09T08:15:00.264Z,6.30
2024-05-09T08:16:00.629Z,5.20
2024-05-09T08:17:00.360Z,5.40
2024-05-09T08:18:00.927Z,7.90
2024-05-09T08:19:00.606Z,5.40
2024-05-09T08:20:01.911Z,5.50
2024-05-09T08:21:01.028Z,5.10
2024-05-09T08:22:00.297Z,6.10
2024-05-09T08:23:00.279Z,6.20
2024-05-09T08:24:00.268Z,4.60
2024-05-09T08:25:00.411Z,7.10
2024-05-09T08:26:00.337Z,5.50
2024-05-09T08:27:00.688Z,5.40
2024-05-09T08:28:02.348Z,5.80
2024-05-09T08:29:00.264Z,5.30
2024-05-09T08:30:00.367Z,6.10
2024-05-09T08:31:01.747Z,5.80
2024-05-09T08:32:00.383Z,5.10
2024-05-09T08:33:00.563Z,5.70
2024-05-09T08:34:00.478Z,6.10
2024-05-09T08:35:00.399Z,6.20
2024-05-09T08:36:00.306Z,9.40
2024-05-09T08:37:06.089Z,6.00
2024-05-09T08:38:01.716Z,7.10
2024-05-09T08:39:00.426Z,7.20
2024-05-09T08:40:00.481Z,9.10
2024-05-09T08:41:02.480Z,8.90
2024-05-09T08:42:00.570Z,4.70
2024-05-09T08:43:01.184Z,5.40
2024-05-09T08:44:00.313Z,7.60
2024-05-09T08:45:00.821Z,5.80
2024-05-09T08:46:00.950Z,5.00
2024-05-09T08:47:00.983Z,5.60
2024-05-09T08:48:01.335Z,4.70
2024-05-09T08:49:01.839Z,4.80
2024-05-09T08:50:01.773Z,5.00
2024-05-09T08:51:00.278Z,4.90
2024-05-09T08:52:00.373Z,5.50
2024-05-09T08:53:00.331Z,6.20
2024-05-09T08:54:00.393Z,5.50
2024-05-09T08:55:00.391Z,4.80
2024-05-09T08:56:00.823Z,7.30
2024-05-09T08:57:01.168Z,5.90
2024-05-09T08:58:02.214Z,5.20
2024-05-09T08:59:00.692Z,4.90
2024-05-09T09:00:03.453Z,6.00
2024-05-09T09:01:01.311Z,5.40
2024-05-09T09:02:01.188Z,5.00
2024-05-09T09:03:00.351Z,5.20
2024-05-09T09:04:01.380Z,6.00
2024-05-09T09:05:04.781Z,4.80
2024-05-09T09:06:01.483Z,4.00
2024-05-09T09:07:01.056Z,4.40
2024-05-09T09:08:03.196Z,4.60
2024-05-09T09:09:00.988Z,5.70
2024-05-09T09:10:01.530Z,5.80
2024-05-09T09:11:00.386Z,5.60
2024-05-09T09:12:00.313Z,5.00
2024-05-09T09:13:00.779Z,5.10
2024-05-09T09:14:00.293Z,4.90
2024-05-09T09:15:00.396Z,6.40
2024-05-09T09:16:00.536Z,5.90
2024-05-09T09:17:10.350Z,7.60
2024-05-09T09:18:00.828Z,5.00
2024-05-09T09:19:00.431Z,5.40
2024-05-09T09:20:00.635Z,4.80
2024-05-09T09:21:00.844Z,4.30
2024-05-09T09:22:00.379Z,4.20
2024-05-09T09:23:00.287Z,4.50
2024-05-09T09:24:00.374Z,4.90
2024-05-09T09:25:00.314Z,4.20
2024-05-09T09:26:00.433Z,5.20
2024-05-09T09:27:00.310Z,4.20
2024-05-09T09:28:00.498Z,4.40
2024-05-09T09:29:00.343Z,4.60
2024-05-09T09:30:00.297Z,4.60
2024-05-09T09:31:00.702Z,4.10
2024-05-09T09:32:00.886Z,4.60
2024-05-09T09:33:00.485Z,4.00
2024-05-09T09:34:04.747Z,4.20
2024-05-09T09:35:00.390Z,6.10
2024-05-09T09:36:01.360Z,3.50
2024-05-09T09:37:03.668Z,4.10
2024-05-09T09:38:01.982Z,4.50
2024-05-09T09:39:00.656Z,4.80
2024-05-09T09:40:01.726Z,4.40
2024-05-09T09:41:05.672Z,4.20
2024-05-09T09:42:01.035Z,5.40
2024-05-09T09:43:00.554Z,5.40
2024-05-09T09:44:01.606Z,4.10
2024-05-09T09:45:05.138Z,3.70
2024-05-09T09:46:00.622Z,4.00
2024-05-09T09:47:01.005Z,4.80
2024-05-09T09:48:00.645Z,4.30
2024-05-09T09:49:00.495Z,4.00
2024-05-09T09:50:00.766Z,4.60
2024-05-09T09:51:00.704Z,4.20
2024-05-09T09:52:00.640Z,4.50
2024-05-09T09:53:02.279Z,4.50
2024-05-09T09:54:01.712Z,5.30
2024-05-09T09:55:00.870Z,4.80
2024-05-09T09:56:00.663Z,5.80
2024-05-09T09:57:03.254Z,5.20
2024-05-09T09:58:02.584Z,5.00
2024-05-09T09:59:02.962Z,4.80
2024-05-09T10:00:00.372Z,4.90
2024-05-09T10:01:02.195Z,4.00
2024-05-09T10:02:00.481Z,4.40
2024-05-09T10:03:01.432Z,3.90
2024-05-09T10:04:00.876Z,4.60
2024-05-09T10:05:00.501Z,4.80
2024-05-09T10:06:00.913Z,4.70
2024-05-09T10:07:01.990Z,4.10
2024-05-09T10:08:02.902Z,5.40
2024-05-09T10:09:00.372Z,5.50
2024-05-09T10:10:00.379Z,5.00
2024-05-09T10:11:02.428Z,5.40
2024-05-09T10:12:09.490Z,4.90
2024-05-09T10:14:00.716Z,6.20
2024-05-09T10:15:06.122Z,5.30
2024-05-09T10:16:06.044Z,5.30
2024-05-09T10:17:03.107Z,4.90
2024-05-09T10:18:03.144Z,4.70
2024-05-09T10:19:00.943Z,5.20
2024-05-09T10:20:07.197Z,4.70
2024-05-09T10:21:00.851Z,4.80
2024-05-09T10:22:01.283Z,4.10
2024-05-09T10:23:00.445Z,5.10
2024-05-09T10:24:02.121Z,4.60
2024-05-09T10:25:05.218Z,3.90
2024-05-09T10:26:01.627Z,4.20
2024-05-09T10:27:02.684Z,4.90
2024-05-09T10:28:00.404Z,5.40
2024-05-09T10:29:19.673Z,4.60
2024-05-09T10:30:01.031Z,4.90
2024-05-09T10:31:06.627Z,4.90
2024-05-09T10:32:00.731Z,5.20
2024-05-09T10:33:00.418Z,4.90
2024-05-09T10:34:00.615Z,4.50
2024-05-09T10:36:02.450Z,5.10
2024-05-09T10:37:02.045Z,5.20
2024-05-09T10:38:04.363Z,4.30
2024-05-09T10:39:00.560Z,5.40
2024-05-09T10:40:01.051Z,5.20
2024-05-09T10:41:01.081Z,4.80
2024-05-09T10:42:00.474Z,4.20
2024-05-09T10:43:04.492Z,5.20
2024-05-09T10:44:00.431Z,5.00
2024-05-09T10:45:00.556Z,5.00
2024-05-09T10:46:00.364Z,5.60
2024-05-09T10:47:00.460Z,8.40
2024-05-09T10:48:00.605Z,5.20
2024-05-09T10:49:03.344Z,5.20
2024-05-09T10:50:00.395Z,5.20
2024-05-09T10:51:00.432Z,5.90
2024-05-09T10:52:02.328Z,5.80
2024-05-09T10:53:01.152Z,5.30
2024-05-09T10:54:00.331Z,4.70
2024-05-09T10:55:01.661Z,6.00
2024-05-09T10:56:00.709Z,5.40
2024-05-09T10:57:00.316Z,6.00
2024-05-09T10:58:00.405Z,5.60
2024-05-09T10:59:03.074Z,5.20
2024-05-09T11:00:00.330Z,6.10
2024-05-09T11:01:04.376Z,12.70
2024-05-09T11:02:02.593Z,6.30
2024-05-09T11:03:00.453Z,6.30
2024-05-09T11:04:00.640Z,5.00
2024-05-09T11:05:00.430Z,5.20
2024-05-09T11:06:00.672Z,5.80
2024-05-09T11:07:05.403Z,6.00
2024-05-09T11:08:00.501Z,6.10
2024-05-09T11:09:00.478Z,6.10
2024-05-09T11:10:00.535Z,7.20
2024-05-09T11:11:01.375Z,7.00
2024-05-09T11:12:01.227Z,6.20
2024-05-09T11:13:00.433Z,5.50
2024-05-09T11:14:09.941Z,6.30
2024-05-09T11:15:00.334Z,5.00
2024-05-09T11:16:00.812Z,5.20
2024-05-09T11:17:00.921Z,4.90
2024-05-09T11:18:00.479Z,5.40
2024-05-09T11:19:00.619Z,4.70
2024-05-09T11:20:00.500Z,5.70
2024-05-09T11:21:00.759Z,5.40
2024-05-09T11:22:00.394Z,6.40
2024-05-09T11:23:04.256Z,6.50
2024-05-09T11:24:00.362Z,5.80
2024-05-09T11:25:00.532Z,5.70
2024-05-09T11:26:00.343Z,5.20
2024-05-09T11:27:02.332Z,6.20
2024-05-09T11:28:00.790Z,6.00
2024-05-09T11:29:00.328Z,5.80
2024-05-09T11:30:00.326Z,6.80
2024-05-09T11:31:03.416Z,6.10
2024-05-09T11:32:00.366Z,6.00
2024-05-09T11:33:00.587Z,6.40
2024-05-09T11:34:00.351Z,7.00
2024-05-09T11:35:00.294Z,6.70
2024-05-09T11:36:00.318Z,10.30
2024-05-09T11:37:00.388Z,6.10
2024-05-09T11:38:00.315Z,12.90
2024-05-09T11:39:00.338Z,9.30
2024-05-09T11:40:00.443Z,4.70
2024-05-09T11:41:01.506Z,8.20
2024-05-09T11:42:00.362Z,5.70
2024-05-09T11:43:00.336Z,5.30
2024-05-09T11:44:00.731Z,5.50
2024-05-09T11:45:00.401Z,6.10
2024-05-09T11:46:01.274Z,8.20
2024-05-09T11:47:01.125Z,7.20
2024-05-09T11:48:00.618Z,10.70
2024-05-09T11:49:00.578Z,5.70
2024-05-09T11:50:00.514Z,5.30
2024-05-09T11:51:00.313Z,5.30
2024-05-09T11:52:00.594Z,5.50
2024-05-09T11:53:00.350Z,5.90
2024-05-09T11:54:00.359Z,5.90
2024-05-09T11:55:00.380Z,5.90
2024-05-09T11:56:00.349Z,5.50
2024-05-09T11:57:00.369Z,5.10
2024-05-09T11:58:01.176Z,10.90
2024-05-09T11:59:00.327Z,5.90
2024-05-09T12:00:00.333Z,6.50
2024-05-09T12:01:00.633Z,17.50
2024-05-09T12:02:00.377Z,5.40
2024-05-09T12:03:00.385Z,8.10
2024-05-09T12:04:00.762Z,10.20
2024-05-09T12:05:00.434Z,5.30
2024-05-09T12:06:00.630Z,5.30
2024-05-09T12:07:00.386Z,4.80
2024-05-09T12:08:00.435Z,6.60
2024-05-09T12:09:00.314Z,5.30
2024-05-09T12:10:00.399Z,5.30
2024-05-09T12:11:00.594Z,4.30
2024-05-09T12:12:00.313Z,5.10
2024-05-09T12:13:00.382Z,4.90
2024-05-09T12:14:00.408Z,4.90
2024-05-09T12:15:00.400Z,4.90
2024-05-09T12:16:00.480Z,4.90
2024-05-09T12:17:00.602Z,5.70
2024-05-09T12:18:03.484Z,6.40
2024-05-09T12:19:00.549Z,4.60
2024-05-09T12:20:00.322Z,5.20
2024-05-09T12:21:01.006Z,5.20
2024-05-09T12:22:00.353Z,8.90
2024-05-09T12:23:00.310Z,4.70
2024-05-09T12:24:00.342Z,5.40
2024-05-09T12:25:00.386Z,5.60
2024-05-09T12:26:00.518Z,5.60
2024-05-09T12:27:00.344Z,5.60
2024-05-09T12:28:00.787Z,4.30
2024-05-09T12:29:00.316Z,4.30
2024-05-09T12:30:00.373Z,3.60
2024-05-09T12:31:00.391Z,4.80
2024-05-09T12:32:00.355Z,8.00
2024-05-09T12:33:00.487Z,5.00
2024-05-09T12:34:00.496Z,4.40
2024-05-09T12:35:00.462Z,4.10
2024-05-09T12:36:00.417Z,3.60
2024-05-09T12:37:00.413Z,3.30
2024-05-09T12:38:00.450Z,3.90
2024-05-09T12:39:00.937Z,5.10
2024-05-09T12:40:00.369Z,4.70
2024-05-09T12:41:01.280Z,4.60
2024-05-09T12:42:00.363Z,4.60
2024-05-09T12:43:00.358Z,4.60
2024-05-09T12:44:00.783Z,4.10
2024-05-09T12:45:00.320Z,3.70
2024-05-09T12:46:00.430Z,3.90
2024-05-09T12:47:00.318Z,3.90
2024-05-09T12:48:00.587Z,3.90
2024-05-09T12:49:00.828Z,3.80
2024-05-09T12:50:00.447Z,3.20
2024-05-09T12:51:00.372Z,3.20
2024-05-09T12:52:00.366Z,2.70
2024-05-09T12:53:00.747Z,3.40
2024-05-09T12:54:00.315Z,3.30
2024-05-09T12:55:00.492Z,3.80
2024-05-09T12:56:02.496Z,3.60
2024-05-09T12:57:00.365Z,3.80
2024-05-09T12:58:00.455Z,4.10
2024-05-09T12:59:00.311Z,4.20
2024-05-09T13:00:00.383Z,4.10
2024-05-09T13:01:00.573Z,4.10
2024-05-09T13:02:01.191Z,3.60
2024-05-09T13:03:00.712Z,3.00
2024-05-09T13:04:00.583Z,3.10
2024-05-09T13:05:00.370Z,2.90
2024-05-09T13:06:00.350Z,2.60
2024-05-09T13:07:00.378Z,3.20
2024-05-09T13:08:00.424Z,3.00
2024-05-09T13:09:00.354Z,2.00
2024-05-09T13:10:00.665Z,2.80
2024-05-09T13:11:00.403Z,3.20
2024-05-09T13:12:00.440Z,4.90
2024-05-09T13:13:01.353Z,2.20
2024-05-09T13:14:00.311Z,3.00
2024-05-09T13:15:00.346Z,3.30
2024-05-09T13:16:00.383Z,3.00
2024-05-09T13:17:00.430Z,4.00
2024-05-09T13:18:03.058Z,3.00
2024-05-09T13:19:00.348Z,3.40
2024-05-09T13:20:00.311Z,3.20
2024-05-09T13:21:00.720Z,3.30
2024-05-09T13:22:00.342Z,2.90
2024-05-09T13:23:01.115Z,2.70
2024-05-09T13:24:00.542Z,2.90
2024-05-09T13:25:00.326Z,2.60
2024-05-09T13:26:00.391Z,2.60
2024-05-09T13:27:00.442Z,2.80
2024-05-09T13:28:00.333Z,2.90
2024-05-09T13:29:00.304Z,3.00
2024-05-09T13:30:00.309Z,2.60
2024-05-09T13:31:00.328Z,2.70
2024-05-09T13:32:00.486Z,3.00
2024-05-09T13:33:00.458Z,2.90
2024-05-09T13:34:00.424Z,2.30
2024-05-09T13:35:00.306Z,2.60
2024-05-09T13:36:00.339Z,3.00
2024-05-09T13:37:00.409Z,2.40
2024-05-09T13:38:00.523Z,2.60
2024-05-09T13:39:00.405Z,2.40
2024-05-09T13:40:00.593Z,2.40
2024-05-09T13:41:00.420Z,2.50
2024-05-09T13:42:00.321Z,2.80
2024-05-09T13:43:00.415Z,2.20
2024-05-09T13:44:00.303Z,3.20
2024-05-09T13:45:00.316Z,2.60
2024-05-09T13:46:00.341Z,3.20
2024-05-09T13:47:00.729Z,2.50
2024-05-09T13:48:00.577Z,2.80
2024-05-09T13:49:01.464Z,3.00
2024-05-09T13:50:00.439Z,2.90
2024-05-09T13:51:00.388Z,2.90
2024-05-09T13:52:00.612Z,2.70
2024-05-09T13:53:00.651Z,2.80
2024-05-09T13:54:00.330Z,2.90
2024-05-09T13:55:00.423Z,2.60
2024-05-09T13:56:00.328Z,3.00
2024-05-09T13:57:00.333Z,2.60
2024-05-09T13:58:00.560Z,2.60
2024-05-09T13:59:00.323Z,2.90
2024-05-09T14:00:00.515Z,2.80
2024-05-09T14:01:00.558Z,2.70
2024-05-09T14:02:00.397Z,3.00
2024-05-09T14:03:00.479Z,2.90
2024-05-09T14:04:00.618Z,3.30
2024-05-09T14:05:00.505Z,2.80
2024-05-09T14:06:00.432Z,3.30
2024-05-09T14:07:00.423Z,3.20
2024-05-09T14:08:00.347Z,2.80
2024-05-09T14:09:00.463Z,2.80
2024-05-09T14:10:00.540Z,3.30
2024-05-09T14:11:00.544Z,3.30
2024-05-09T14:12:00.323Z,2.80
2024-05-09T14:13:00.535Z,3.00
2024-05-09T14:14:00.522Z,3.40
2024-05-09T14:15:00.319Z,3.10
2024-05-09T14:16:00.636Z,4.40
2024-05-09T14:17:00.454Z,3.80
2024-05-09T14:18:00.351Z,3.30
2024-05-09T14:19:00.669Z,3.10
2024-05-09T14:20:00.347Z,3.40
2024-05-09T14:21:01.530Z,3.20
2024-05-09T14:22:00.316Z,2.80
2024-05-09T14:23:00.906Z,3.00
2024-05-09T14:24:00.326Z,2.60
2024-05-09T14:25:00.421Z,3.80
2024-05-09T14:26:00.303Z,2.80
2024-05-09T14:27:00.426Z,3.00
2024-05-09T14:28:00.718Z,3.10
2024-05-09T14:29:00.342Z,2.80
2024-05-09T14:30:00.384Z,3.00
2024-05-09T14:31:00.366Z,3.40
2024-05-09T14:32:01.081Z,3.00
2024-05-09T14:33:00.437Z,2.80
2024-05-09T14:34:00.532Z,2.90
2024-05-09T14:35:00.451Z,2.70
2024-05-09T14:36:00.622Z,3.50
2024-05-09T14:37:00.475Z,2.70
2024-05-09T14:38:00.387Z,2.70
2024-05-09T14:39:00.437Z,3.10
2024-05-09T14:40:00.401Z,3.40
2024-05-09T14:41:00.397Z,2.70
2024-05-09T14:42:00.331Z,2.80
2024-05-09T14:43:02.591Z,2.80
2024-05-09T14:44:00.318Z,2.70
2024-05-09T14:45:00.365Z,3.00
2024-05-09T14:46:00.482Z,3.00
2024-05-09T14:47:00.332Z,3.20
2024-05-09T14:48:00.841Z,2.70
2024-05-09T14:49:00.517Z,2.90
2024-05-09T14:50:00.336Z,2.90
2024-05-09T14:51:00.304Z,3.10
2024-05-09T14:52:00.343Z,3.10
2024-05-09T14:53:00.315Z,2.90
2024-05-09T14:54:00.329Z,2.70
2024-05-09T14:55:01.128Z,2.70
2024-05-09T14:57:00.317Z,3.00
2024-05-09T14:58:00.581Z,3.00
2024-05-09T14:59:00.405Z,2.90
2024-05-09T15:00:00.390Z,2.90
2024-05-09T15:01:02.730Z,2.20
2024-05-09T15:02:00.467Z,2.70
2024-05-09T15:03:00.726Z,2.90
2024-05-09T15:04:00.873Z,2.90
2024-05-09T15:05:01.270Z,2.80
2024-05-09T15:06:00.412Z,3.10
2024-05-09T15:07:00.491Z,2.60
2024-05-09T15:08:00.316Z,2.70
2024-05-09T15:09:00.392Z,3.10
2024-05-09T15:10:00.354Z,3.30
2024-05-09T15:11:00.352Z,2.80
2024-05-09T15:12:00.558Z,2.40
2024-05-09T15:13:00.458Z,2.20
2024-05-09T15:14:00.309Z,2.90
2024-05-09T15:15:00.352Z,2.70
2024-05-09T15:16:00.607Z,2.60
2024-05-09T15:17:00.364Z,2.70
2024-05-09T15:18:00.589Z,2.90
2024-05-09T15:19:00.469Z,3.50
2024-05-09T15:20:00.470Z,2.90
2024-05-09T15:21:01.148Z,3.20
2024-05-09T15:22:00.356Z,3.30
2024-05-09T15:23:00.481Z,3.30
2024-05-09T15:24:00.320Z,3.10
2024-05-09T15:25:00.398Z,3.20
2024-05-09T15:26:00.524Z,3.20
2024-05-09T15:27:00.410Z,3.30
2024-05-09T15:28:00.443Z,3.30
2024-05-09T15:29:00.333Z,2.90
2024-05-09T15:30:00.317Z,3.40
2024-05-09T15:31:00.341Z,3.50
2024-05-09T15:32:00.418Z,3.00
2024-05-09T15:33:01.400Z,2.60
2024-05-09T15:34:00.543Z,2.70
2024-05-09T15:35:00.381Z,3.00
2024-05-09T15:36:00.352Z,2.90
2024-05-09T15:37:00.436Z,2.50
2024-05-09T15:38:00.467Z,3.10
2024-05-09T15:39:00.381Z,2.50
2024-05-09T15:40:00.609Z,2.70
2024-05-09T15:41:00.529Z,2.40
2024-05-09T15:42:01.281Z,2.50
2024-05-09T15:43:00.393Z,2.50
2024-05-09T15:44:00.311Z,2.60
2024-05-09T15:45:00.351Z,2.40
2024-05-09T15:46:00.505Z,2.40
2024-05-09T15:47:00.320Z,2.70
2024-05-09T15:48:01.011Z,2.60
2024-05-09T15:49:00.675Z,3.00
2024-05-09T15:50:00.411Z,3.30
2024-05-09T15:51:00.366Z,2.50
2024-05-09T15:52:00.341Z,2.60
2024-05-09T15:53:00.318Z,3.00
2024-05-09T15:54:00.312Z,3.10
2024-05-09T15:55:00.394Z,2.40
2024-05-09T15:56:00.621Z,2.90
2024-05-09T15:57:00.397Z,2.70
2024-05-09T15:58:00.921Z,3.50
2024-05-09T15:59:00.348Z,3.00
2024-05-09T16:00:00.385Z,2.80
2024-05-09T16:01:00.436Z,3.10
2024-05-09T16:02:00.560Z,2.40
2024-05-09T16:03:00.350Z,2.70
2024-05-09T16:04:00.622Z,2.20
2024-05-09T16:05:00.524Z,3.40
2024-05-09T16:06:00.499Z,3.10
2024-05-09T16:07:00.354Z,3.00
2024-05-09T16:08:00.459Z,3.20
2024-05-09T16:09:00.533Z,3.30